PPR-pyyntö

Ennakkolupa on pakollinen lentoonlähtöjä ja laskuja varten. Pyydä ennakkolupa tästä.

Laskukierrosvaraus

Tee ensin PPR-pyyntö, sitten vasta laskukierrosvaraus. Hinta 5 € / 15 min.

Aerodrome Info

Updated 20 JAN 2018 09:18 LT

  • SNOW ON RWY, TWY and APN
  • PLOUGHING DONE.
  • TAXI J-M ALLOWED DUE TO ICE ON APN 2

Contact duty officer at +358 20 7545 129 for more information.

Weather


Helsinki Malmi lentokenttä
AWS ILHF 201820Z AUTO 36003KT 9000 OVC005 M04/M05 Q1009=

METAR EFHK 201820Z 36005KT 330V030 9999 BKN005 M04/M05 Q1009 TEMPO BKN004=
TAF EFHK 201723Z 2018/2118 35006KT 9999 BKN004 BECMG 2018/2020 BKN006 TEMPO 2023/2106 2000 BR BKN003 BECMG 2106/2109 BKN020 TEMPO 2109/2118 4000 -SN BKN008=

Helsinki-Malmin lentoasema

Tervetuloa Helsinki-Malmin lentokentälle

Malmin lentokenttäyhdistys ry on yleishyödyllinen yhdistys, joka toimii Suomen vilkkaimman yleisilmailukentän, Helsinki-Malmin operaattorina. Yhdistyksen toiminnassa ovat mukana kentällä toimivat yhteisöt sekä suuri joukko yleisilmailijoita.

Malmin lentokentän toiminta rahoitetaan jäsen- ja kausikorttimaksuin. Ole mukana jatkamassa Malmin lentotoimintaa ja liity jäseneksi!